createdAt,value
2023-01-21T00:02:23.711Z,19.98
2023-01-21T00:04:52.794Z,19.80
2023-01-21T00:07:21.758Z,20.02
2023-01-21T00:09:50.825Z,19.40
2023-01-21T00:12:19.772Z,19.13
2023-01-21T00:14:48.723Z,20.13
2023-01-21T00:17:17.632Z,19.25
2023-01-21T00:19:46.585Z,20.25
2023-01-21T00:22:15.600Z,20.02
2023-01-21T00:24:44.560Z,19.63
2023-01-21T00:27:13.451Z,20.17
2023-01-21T00:29:42.433Z,18.10
2023-01-21T00:32:11.705Z,19.27
2023-01-21T00:34:40.577Z,21.38
2023-01-21T00:37:09.516Z,20.38
2023-01-21T00:39:43.762Z,18.95
2023-01-21T00:44:43.897Z,23.85
2023-01-21T00:47:15.943Z,23.33
2023-01-21T00:49:47.926Z,21.63
2023-01-21T00:52:19.735Z,15.80
2023-01-21T00:54:49.724Z,14.90
2023-01-21T00:57:24.933Z,15.98
2023-01-21T01:05:21.129Z,16.33
2023-01-21T01:07:51.423Z,16.95
2023-01-21T01:10:20.642Z,17.30
2023-01-21T01:12:49.596Z,17.20
2023-01-21T01:15:18.925Z,16.38
2023-01-21T01:17:47.966Z,21.73
2023-01-21T01:20:17.120Z,19.52
2023-01-21T01:22:46.131Z,17.00
2023-01-21T01:25:15.051Z,18.95
2023-01-21T01:27:43.966Z,18.35
2023-01-21T01:30:13.618Z,17.23
2023-01-21T01:32:42.594Z,16.90
2023-01-21T01:35:11.739Z,17.35
2023-01-21T01:37:40.674Z,15.85
2023-01-21T01:40:13.581Z,17.52
2023-01-21T01:42:42.623Z,17.27
2023-01-21T01:45:29.545Z,17.13
2023-01-21T01:48:02.518Z,17.13
2023-01-21T01:50:36.752Z,16.08
2023-01-21T01:55:37.622Z,18.42
2023-01-21T01:58:12.206Z,16.70
2023-01-21T02:00:41.463Z,17.95
2023-01-21T02:03:28.834Z,17.77
2023-01-21T02:05:57.745Z,17.48
2023-01-21T02:08:29.083Z,16.20
2023-01-21T02:10:57.980Z,18.17
2023-01-21T02:13:29.157Z,17.15
2023-01-21T02:16:03.914Z,16.55
2023-01-21T02:19:17.580Z,16.90
2023-01-21T02:22:10.972Z,16.83
2023-01-21T02:25:19.864Z,17.55
2023-01-21T02:28:16.391Z,16.33
2023-01-21T02:31:09.784Z,16.58
2023-01-21T02:34:12.811Z,17.48
2023-01-21T02:36:47.800Z,17.58
2023-01-21T02:39:38.120Z,16.90
2023-01-21T02:42:19.431Z,16.63
2023-01-21T02:45:23.392Z,20.60
2023-01-21T02:48:07.493Z,22.80
2023-01-21T02:50:45.012Z,14.93
2023-01-21T02:53:39.902Z,17.60
2023-01-21T02:56:16.423Z,15.75
2023-01-21T02:59:04.975Z,16.25
2023-01-21T03:01:57.185Z,19.50
2023-01-21T03:04:38.448Z,15.52
2023-01-21T03:07:28.550Z,16.27
2023-01-21T03:10:12.297Z,16.63
2023-01-21T03:12:56.731Z,16.98
2023-01-21T03:15:59.636Z,14.07
2023-01-21T03:18:51.429Z,15.05
2023-01-21T03:21:27.579Z,20.23
2023-01-21T03:23:59.883Z,15.15
2023-01-21T03:26:40.221Z,15.32
2023-01-21T03:29:19.015Z,15.65
2023-01-21T03:31:52.161Z,19.13
2023-01-21T03:34:24.313Z,16.20
2023-01-21T03:37:01.570Z,15.50
2023-01-21T03:39:50.701Z,15.45
2023-01-21T03:42:19.927Z,16.08
2023-01-21T03:44:48.907Z,15.10
2023-01-21T03:47:36.814Z,16.05
2023-01-21T03:50:11.011Z,17.88
2023-01-21T03:52:44.795Z,18.30
2023-01-21T03:55:16.023Z,17.70
2023-01-21T03:57:45.010Z,16.77
2023-01-21T04:00:14.968Z,15.65
2023-01-21T04:02:44.083Z,15.73
2023-01-21T04:05:15.252Z,14.23
2023-01-21T04:07:47.043Z,13.65
2023-01-21T04:10:16.324Z,14.55
2023-01-21T04:12:45.330Z,14.82
2023-01-21T04:15:14.387Z,12.75
2023-01-21T04:17:43.344Z,13.48
2023-01-21T04:20:12.911Z,12.68
2023-01-21T04:22:41.945Z,13.18
2023-01-21T04:25:10.946Z,13.02
2023-01-21T04:27:39.868Z,13.73
2023-01-21T04:30:09.691Z,13.30
2023-01-21T04:32:38.803Z,14.48
2023-01-21T04:35:11.659Z,20.33
2023-01-21T04:37:40.506Z,20.25
2023-01-21T04:40:10.026Z,14.25
2023-01-21T04:42:38.970Z,13.45
2023-01-21T04:45:08.614Z,15.27
2023-01-21T04:47:37.647Z,13.98
2023-01-21T04:50:07.233Z,15.80
2023-01-21T04:52:36.249Z,15.15
2023-01-21T04:55:05.586Z,15.25
2023-01-21T04:57:34.565Z,14.25
2023-01-21T05:00:06.697Z,14.70
2023-01-21T05:02:35.956Z,14.07
2023-01-21T05:05:05.012Z,17.42
2023-01-21T05:07:33.924Z,17.63
2023-01-21T05:10:02.924Z,20.95
2023-01-21T05:12:31.802Z,19.55
2023-01-21T05:15:00.802Z,19.25
2023-01-21T05:17:29.767Z,19.17
2023-01-21T05:19:58.717Z,17.70
2023-01-21T05:22:27.584Z,18.70
2023-01-21T05:25:06.518Z,17.95
2023-01-21T05:27:36.748Z,17.63
2023-01-21T05:30:06.100Z,16.80
2023-01-21T05:32:36.795Z,17.40
2023-01-21T05:35:08.278Z,17.63
2023-01-21T05:37:37.268Z,16.42
2023-01-21T05:40:06.552Z,14.23
2023-01-21T05:42:35.444Z,14.52
2023-01-21T05:45:04.374Z,13.18
2023-01-21T05:47:33.342Z,12.95
2023-01-21T05:50:02.268Z,12.65
2023-01-21T05:52:31.251Z,14.00
2023-01-21T05:55:02.261Z,13.48
2023-01-21T05:57:32.931Z,12.82
2023-01-21T06:00:01.846Z,13.63
2023-01-21T06:02:30.800Z,11.75
2023-01-21T06:04:59.746Z,11.68
2023-01-21T06:07:28.658Z,12.48
2023-01-21T06:09:57.628Z,13.43
2023-01-21T06:12:26.645Z,12.88
2023-01-21T06:14:55.554Z,11.85
2023-01-21T06:17:24.448Z,11.68
2023-01-21T06:19:53.481Z,12.15
2023-01-21T06:22:23.170Z,13.05
2023-01-21T06:24:52.026Z,13.73
2023-01-21T06:27:21.097Z,11.90
2023-01-21T06:29:50.048Z,19.70
2023-01-21T06:32:19.050Z,13.98
2023-01-21T06:34:47.958Z,12.02
2023-01-21T06:37:16.868Z,12.25
2023-01-21T06:39:45.734Z,12.70
2023-01-21T06:42:14.698Z,11.35
2023-01-21T06:44:43.615Z,12.77
2023-01-21T06:47:12.836Z,13.75
2023-01-21T06:49:41.867Z,11.20
2023-01-21T06:52:11.213Z,11.27
2023-01-21T06:54:40.268Z,12.45
2023-01-21T06:57:09.237Z,12.20
2023-01-21T06:59:38.168Z,12.57
2023-01-21T07:02:07.243Z,11.95
2023-01-21T07:04:36.194Z,12.75
2023-01-21T07:07:05.276Z,13.15
2023-01-21T07:09:34.179Z,13.00
2023-01-21T07:12:03.071Z,12.90
2023-01-21T07:14:32.152Z,13.32
2023-01-21T07:17:01.170Z,12.40
2023-01-21T07:19:30.212Z,11.63
2023-01-21T07:21:59.172Z,12.23
2023-01-21T07:24:28.126Z,12.25
2023-01-21T07:26:58.090Z,12.35
2023-01-21T07:29:29.082Z,11.75
2023-01-21T07:31:58.027Z,13.05
2023-01-21T07:34:28.798Z,12.90
2023-01-21T07:36:57.767Z,11.45
2023-01-21T07:39:27.154Z,12.68
2023-01-21T07:41:56.048Z,12.05
2023-01-21T07:44:24.926Z,13.02
2023-01-21T07:46:53.950Z,15.73
2023-01-21T07:49:22.920Z,14.10
2023-01-21T07:51:52.179Z,13.90
2023-01-21T07:54:21.131Z,14.23
2023-01-21T07:56:50.107Z,14.43
2023-01-21T07:59:18.996Z,14.52
2023-01-21T08:01:47.997Z,19.70
2023-01-21T08:04:16.953Z,12.82
2023-01-21T08:06:45.962Z,12.15
2023-01-21T08:09:14.977Z,11.70
2023-01-21T08:11:45.775Z,10.90
2023-01-21T08:14:14.729Z,12.52
2023-01-21T08:16:43.646Z,12.00
2023-01-21T08:19:13.950Z,11.65
2023-01-21T08:21:42.974Z,12.32
2023-01-21T08:24:12.118Z,13.32
2023-01-21T08:26:41.088Z,13.20
2023-01-21T08:29:10.333Z,13.02
2023-01-21T08:31:39.508Z,12.90
2023-01-21T08:34:08.441Z,12.65
2023-01-21T08:36:39.777Z,13.10
2023-01-21T08:39:08.759Z,11.25
2023-01-21T08:41:37.754Z,11.85
2023-01-21T08:44:06.862Z,11.15
2023-01-21T08:46:36.196Z,11.43
2023-01-21T08:49:06.275Z,11.82
2023-01-21T08:51:35.261Z,11.90
2023-01-21T08:54:04.351Z,12.73
2023-01-21T08:56:33.276Z,12.35
2023-01-21T08:59:03.887Z,11.38
2023-01-21T09:01:32.944Z,10.93
2023-01-21T09:04:02.665Z,13.02
2023-01-21T09:06:32.143Z,11.15
2023-01-21T09:09:01.204Z,11.48
2023-01-21T09:11:31.515Z,10.05
2023-01-21T09:14:04.466Z,10.27
2023-01-21T09:16:33.824Z,9.60
2023-01-21T09:19:02.897Z,9.80
2023-01-21T09:21:31.965Z,9.90
2023-01-21T09:24:00.912Z,11.25
2023-01-21T09:26:30.308Z,10.48
2023-01-21T09:29:01.283Z,12.80
2023-01-21T09:31:32.495Z,10.93
2023-01-21T09:34:04.737Z,9.98
2023-01-21T09:36:35.931Z,9.82
2023-01-21T09:39:04.997Z,11.43
2023-01-21T09:41:46.723Z,10.77
2023-01-21T09:44:29.361Z,10.07
2023-01-21T09:47:18.653Z,10.57
2023-01-21T09:49:55.716Z,11.20
2023-01-21T09:52:44.593Z,10.50
2023-01-21T09:55:33.968Z,10.88
2023-01-21T09:58:08.792Z,10.55
2023-01-21T10:00:53.261Z,10.70
2023-01-21T10:03:40.620Z,9.77
2023-01-21T10:06:36.352Z,10.55
2023-01-21T10:09:17.474Z,9.55
2023-01-21T10:12:00.775Z,10.80
2023-01-21T10:14:41.405Z,11.50
2023-01-21T10:17:35.026Z,10.93
2023-01-21T10:20:13.167Z,11.47
2023-01-21T10:22:49.191Z,10.93
2023-01-21T10:25:41.592Z,11.35
2023-01-21T10:28:20.938Z,10.30
2023-01-21T10:30:55.883Z,12.30
2023-01-21T10:33:28.351Z,13.10
2023-01-21T10:36:06.499Z,10.75
2023-01-21T10:38:41.358Z,11.13
2023-01-21T10:41:27.013Z,10.93
2023-01-21T10:44:14.591Z,12.23
2023-01-21T10:47:03.302Z,11.90
2023-01-21T10:50:07.509Z,11.88
2023-01-21T10:52:47.400Z,10.93
2023-01-21T10:55:25.404Z,11.23
2023-01-21T10:58:03.353Z,11.63
2023-01-21T11:00:46.340Z,11.95
2023-01-21T11:03:33.914Z,11.80
2023-01-21T11:06:05.501Z,10.55
2023-01-21T11:08:34.719Z,11.80
2023-01-21T11:11:06.795Z,11.65
2023-01-21T11:13:35.999Z,11.75
2023-01-21T11:16:05.752Z,11.52
2023-01-21T11:18:37.787Z,12.10
2023-01-21T11:21:20.163Z,13.68
2023-01-21T11:24:00.748Z,15.75
2023-01-21T11:26:36.034Z,15.27
2023-01-21T11:29:19.486Z,14.75
2023-01-21T11:32:01.402Z,14.77
2023-01-21T11:34:30.867Z,15.88
2023-01-21T11:37:07.214Z,16.42
2023-01-21T11:39:42.739Z,17.60
2023-01-21T11:42:19.555Z,15.80
2023-01-21T11:45:24.168Z,20.20
2023-01-21T11:47:54.860Z,19.55
2023-01-21T11:50:39.190Z,20.10
2023-01-21T11:55:53.137Z,19.92
2023-01-21T11:58:37.302Z,19.20
2023-01-21T12:01:21.936Z,18.08
2023-01-21T12:03:57.698Z,17.13
2023-01-21T12:06:31.788Z,17.23
2023-01-21T12:09:08.617Z,17.83
2023-01-21T12:11:37.588Z,18.25
2023-01-21T12:14:44.580Z,19.42
2023-01-21T12:17:41.474Z,20.20
2023-01-21T12:20:29.752Z,20.20
2023-01-21T12:23:07.426Z,23.17
2023-01-21T12:25:49.081Z,22.33
2023-01-21T12:28:34.763Z,21.98
2023-01-21T12:31:25.100Z,24.40
2023-01-21T12:34:11.994Z,25.63
2023-01-21T12:36:56.392Z,28.08
2023-01-21T12:42:28.370Z,28.00
2023-01-21T12:45:08.366Z,26.80
2023-01-21T12:48:04.579Z,28.30
2023-01-21T12:50:42.312Z,30.80
2023-01-21T12:53:31.541Z,30.35
2023-01-21T12:56:20.359Z,30.88
2023-01-21T12:59:00.587Z,32.55
2023-01-21T13:01:59.058Z,25.60
2023-01-21T13:05:06.964Z,25.17
2023-01-21T13:08:01.721Z,26.90
2023-01-21T13:13:20.839Z,29.65
2023-01-21T13:15:57.707Z,26.42
2023-01-21T13:18:42.567Z,27.52
2023-01-21T13:21:33.071Z,25.20
2023-01-21T13:24:28.434Z,26.55
2023-01-21T13:26:57.387Z,25.73
2023-01-21T13:29:58.567Z,27.58
2023-01-21T13:32:43.810Z,25.85
2023-01-21T13:35:30.981Z,25.83
2023-01-21T13:37:59.826Z,27.55
2023-01-21T13:41:24.216Z,26.35
2023-01-21T13:44:39.215Z,26.05
2023-01-21T13:47:28.052Z,25.25
2023-01-21T13:50:02.967Z,27.48
2023-01-21T13:53:11.516Z,27.38
2023-01-21T13:55:48.242Z,27.70
2023-01-21T13:58:27.830Z,30.00
2023-01-21T14:01:12.064Z,26.58
2023-01-21T14:03:54.093Z,27.00
2023-01-21T14:06:33.214Z,30.08
2023-01-21T14:09:21.276Z,31.77
2023-01-21T14:12:11.145Z,33.25
2023-01-21T14:14:55.394Z,31.20
2023-01-21T14:17:50.205Z,29.15
2023-01-21T14:23:23.830Z,29.48
2023-01-21T14:26:14.051Z,28.23
2023-01-21T14:28:48.945Z,30.48
2023-01-21T14:31:28.497Z,27.42
2023-01-21T14:34:22.510Z,27.05
2023-01-21T14:37:05.821Z,28.30
2023-01-21T14:40:04.012Z,26.23
2023-01-21T14:42:48.538Z,27.10
2023-01-21T14:47:49.437Z,28.42
2023-01-21T14:50:55.227Z,31.67
2023-01-21T14:53:31.724Z,29.92
2023-01-21T14:56:23.789Z,32.80
2023-01-21T14:58:59.016Z,32.53
2023-01-21T15:02:04.819Z,33.97
2023-01-21T15:04:40.154Z,31.90
2023-01-21T15:07:16.104Z,33.40
2023-01-21T15:09:50.157Z,31.90
2023-01-21T15:12:29.794Z,33.08
2023-01-21T15:15:04.210Z,30.80
2023-01-21T15:18:00.623Z,34.60
2023-01-21T15:20:44.520Z,34.80
2023-01-21T15:23:31.855Z,34.50
2023-01-21T15:26:33.647Z,33.20
2023-01-21T15:29:34.709Z,32.65
2023-01-21T15:32:40.565Z,31.77
2023-01-21T15:35:27.535Z,30.65
2023-01-21T15:38:14.533Z,33.90
2023-01-21T15:40:45.554Z,35.13
2023-01-21T15:43:29.830Z,31.77
2023-01-21T15:46:20.143Z,34.00
2023-01-21T15:49:04.692Z,35.35
2023-01-21T15:54:02.090Z,35.38
2023-01-21T15:56:37.899Z,33.33
2023-01-21T15:59:43.643Z,35.75
2023-01-21T16:02:15.366Z,36.17
2023-01-21T16:05:10.460Z,37.28
2023-01-21T16:08:15.436Z,35.28
2023-01-21T16:10:58.955Z,35.72
2023-01-21T16:13:59.078Z,36.72
2023-01-21T16:16:41.342Z,35.22
2023-01-21T16:19:13.955Z,37.05
2023-01-21T16:21:47.083Z,36.78
2023-01-21T16:24:20.197Z,38.38
2023-01-21T16:26:49.183Z,37.70
2023-01-21T16:29:18.121Z,36.60
2023-01-21T16:32:00.459Z,36.63
2023-01-21T16:34:49.522Z,39.38
2023-01-21T16:37:25.298Z,39.03
2023-01-21T16:40:18.385Z,39.33
2023-01-21T16:42:47.455Z,39.25
2023-01-21T16:45:16.589Z,39.33
2023-01-21T16:47:47.604Z,38.90
2023-01-21T16:50:33.525Z,40.92
2023-01-21T16:53:09.247Z,39.47
2023-01-21T16:55:49.391Z,41.63
2023-01-21T16:58:33.674Z,44.50
2023-01-21T17:01:14.551Z,40.53
2023-01-21T17:03:45.443Z,40.83
2023-01-21T17:06:27.785Z,41.88
2023-01-21T17:09:02.071Z,42.25
2023-01-21T17:14:08.348Z,48.03
2023-01-21T17:16:40.470Z,49.13
2023-01-21T17:19:41.893Z,50.78
2023-01-21T17:22:22.511Z,49.80
2023-01-21T17:25:03.343Z,50.55
2023-01-21T17:27:34.393Z,51.10
2023-01-21T17:30:31.993Z,47.42
2023-01-21T17:33:03.618Z,44.95
2023-01-21T17:35:36.763Z,49.83
2023-01-21T17:38:07.171Z,48.22
2023-01-21T17:40:42.437Z,48.28
2023-01-21T17:43:23.940Z,48.90
2023-01-21T17:45:54.923Z,47.05
2023-01-21T17:48:46.065Z,45.13
2023-01-21T17:51:16.479Z,47.47
2023-01-21T17:53:54.096Z,46.05
2023-01-21T17:56:53.164Z,48.97
2023-01-21T17:59:35.722Z,49.20
2023-01-21T18:02:12.820Z,48.15
2023-01-21T18:04:43.389Z,47.60
2023-01-21T18:07:38.981Z,46.72
2023-01-21T18:10:17.807Z,47.28
2023-01-21T18:12:46.893Z,47.00
2023-01-21T18:15:21.613Z,51.08
2023-01-21T18:18:01.710Z,50.75
2023-01-21T18:20:31.571Z,50.75
2023-01-21T18:23:01.559Z,49.95
2023-01-21T18:25:30.525Z,52.67
2023-01-21T18:27:59.593Z,54.28
2023-01-21T18:30:30.743Z,51.80
2023-01-21T18:32:59.700Z,50.95
2023-01-21T18:35:31.120Z,50.53
2023-01-21T18:38:00.016Z,52.03
2023-01-21T18:40:29.232Z,49.53
2023-01-21T18:42:58.145Z,54.70
2023-01-21T18:45:28.925Z,52.47
2023-01-21T18:47:59.429Z,51.97
2023-01-21T18:50:30.746Z,53.40
2023-01-21T18:52:59.802Z,52.08
2023-01-21T18:55:31.004Z,53.20
2023-01-21T18:58:00.104Z,55.20
2023-01-21T19:00:31.661Z,56.70
2023-01-21T19:03:02.631Z,54.38
2023-01-21T19:05:36.109Z,55.17
2023-01-21T19:08:07.300Z,57.77
2023-01-21T19:10:36.154Z,57.35
2023-01-21T19:13:05.042Z,56.15
2023-01-21T19:15:34.026Z,55.22
2023-01-21T19:18:03.429Z,54.17
2023-01-21T19:20:32.350Z,52.55
2023-01-21T19:23:01.292Z,52.60
2023-01-21T19:25:30.285Z,49.63
2023-01-21T19:27:59.396Z,50.53
2023-01-21T19:30:31.967Z,51.30
2023-01-21T19:33:04.748Z,47.28
2023-01-21T19:35:35.347Z,48.67
2023-01-21T19:38:09.338Z,50.50
2023-01-21T19:40:38.505Z,48.22
2023-01-21T19:43:07.529Z,48.50
2023-01-21T19:45:36.412Z,48.15
2023-01-21T19:48:07.138Z,46.50
2023-01-21T19:50:36.073Z,46.35
2023-01-21T19:53:04.990Z,45.00
2023-01-21T19:55:38.063Z,45.35
2023-01-21T19:58:20.689Z,45.03
2023-01-21T20:00:51.188Z,44.50
2023-01-21T20:03:21.945Z,44.80
2023-01-21T20:05:53.475Z,49.08
2023-01-21T20:08:28.544Z,50.35
2023-01-21T20:10:57.649Z,49.83
2023-01-21T20:13:28.578Z,50.35
2023-01-21T20:16:01.266Z,49.95
2023-01-21T20:18:34.270Z,49.20
2023-01-21T20:21:03.215Z,52.13
2023-01-21T20:23:33.666Z,52.42
2023-01-21T20:26:02.544Z,48.22
2023-01-21T20:28:41.572Z,49.38
2023-01-21T20:31:12.856Z,47.08
2023-01-21T20:33:43.920Z,46.10
2023-01-21T20:36:21.225Z,46.35
2023-01-21T20:38:50.242Z,44.60
2023-01-21T20:41:19.166Z,43.92
2023-01-21T20:43:48.403Z,45.08
2023-01-21T20:46:30.856Z,43.83
2023-01-21T20:49:00.325Z,43.53
2023-01-21T20:51:29.613Z,43.85
2023-01-21T20:53:58.536Z,45.65
2023-01-21T20:56:32.676Z,41.83
2023-01-21T20:59:01.811Z,44.90
2023-01-21T21:01:32.238Z,44.33
2023-01-21T21:04:01.206Z,46.22
2023-01-21T21:06:30.436Z,45.90
2023-01-21T21:08:59.476Z,45.58
2023-01-21T21:11:28.450Z,44.63
2023-01-21T21:13:57.609Z,42.88
2023-01-21T21:16:32.880Z,42.75
2023-01-21T21:19:01.887Z,45.03
2023-01-21T21:21:30.772Z,46.70
2023-01-21T21:23:59.738Z,46.60
2023-01-21T21:26:34.272Z,43.70
2023-01-21T21:29:03.194Z,46.25
2023-01-21T21:31:33.666Z,43.72
2023-01-21T21:34:02.577Z,43.83
2023-01-21T21:36:31.655Z,43.10
2023-01-21T21:39:01.216Z,44.20
2023-01-21T21:41:48.272Z,44.28
2023-01-21T21:44:17.183Z,43.55
2023-01-21T21:47:04.179Z,44.63
2023-01-21T21:49:33.674Z,44.00
2023-01-21T21:52:02.627Z,41.33
2023-01-21T21:54:32.163Z,42.42
2023-01-21T21:57:01.577Z,46.60
2023-01-21T21:59:30.542Z,43.88
2023-01-21T22:02:01.749Z,43.10
2023-01-21T22:04:30.664Z,44.03
2023-01-21T22:06:59.623Z,45.35
2023-01-21T22:09:28.530Z,43.55
2023-01-21T22:11:57.438Z,43.53
2023-01-21T22:14:26.337Z,62.35
2023-01-21T22:16:55.253Z,46.95
2023-01-21T22:19:24.388Z,42.40
2023-01-21T22:21:53.345Z,42.78
2023-01-21T22:24:22.312Z,42.15
2023-01-21T22:26:51.174Z,44.50
2023-01-21T22:29:20.073Z,44.55
2023-01-21T22:31:50.025Z,46.15
2023-01-21T22:34:19.002Z,43.90
2023-01-21T22:36:49.306Z,44.35
2023-01-21T22:39:18.394Z,43.42
2023-01-21T22:41:47.324Z,41.42
2023-01-21T22:44:16.255Z,44.70
2023-01-21T22:46:46.761Z,45.05
2023-01-21T22:49:15.660Z,43.72
2023-01-21T22:51:44.638Z,42.70
2023-01-21T22:54:13.696Z,42.78
2023-01-21T22:56:52.235Z,41.67
2023-01-21T22:59:24.021Z,42.25
2023-01-21T23:01:53.417Z,41.80
2023-01-21T23:04:22.344Z,41.28
2023-01-21T23:06:55.783Z,42.28
2023-01-21T23:09:24.962Z,43.10
2023-01-21T23:11:53.865Z,40.78
2023-01-21T23:14:25.896Z,43.53
2023-01-21T23:16:55.352Z,41.60
2023-01-21T23:19:24.694Z,42.22
2023-01-21T23:21:53.532Z,40.95
2023-01-21T23:24:22.540Z,43.33
2023-01-21T23:26:51.426Z,42.70
2023-01-21T23:29:20.488Z,45.40
2023-01-21T23:31:49.503Z,43.33
2023-01-21T23:34:18.901Z,45.13
2023-01-21T23:36:47.902Z,44.08
2023-01-21T23:39:16.984Z,59.08
2023-01-21T23:41:45.893Z,61.35
2023-01-21T23:44:14.780Z,55.22
2023-01-21T23:46:44.696Z,52.47
2023-01-21T23:49:17.343Z,48.97
2023-01-21T23:51:47.912Z,50.92
2023-01-21T23:54:16.977Z,48.97
2023-01-21T23:56:45.947Z,46.47
2023-01-21T23:59:14.887Z,49.80
